createdAt,value
2023-02-02T00:00:36.893Z,75.84
2023-02-02T00:03:10.921Z,75.88
2023-02-02T00:05:39.228Z,75.95
2023-02-02T00:08:07.030Z,75.64
2023-02-02T00:10:36.270Z,76.40
2023-02-02T00:13:04.709Z,76.41
2023-02-02T00:15:35.685Z,77.12
2023-02-02T00:18:03.709Z,75.94
2023-02-02T00:20:38.379Z,76.24
2023-02-02T00:23:06.484Z,76.31
2023-02-02T00:25:34.538Z,76.37
2023-02-02T00:28:06.152Z,76.91
2023-02-02T00:30:34.079Z,76.65
2023-02-02T00:33:05.993Z,76.89
2023-02-02T00:35:37.352Z,76.73
2023-02-02T00:38:05.718Z,76.92
2023-02-02T00:40:35.512Z,76.70
2023-02-02T00:43:03.952Z,76.97
2023-02-02T00:45:31.833Z,76.52
2023-02-02T00:48:00.772Z,76.89
2023-02-02T00:50:33.709Z,76.96
2023-02-02T00:53:05.257Z,76.29
2023-02-02T00:55:36.425Z,77.09
2023-02-02T00:58:06.521Z,76.28
2023-02-02T01:00:34.326Z,76.34
2023-02-02T01:03:04.488Z,76.67
2023-02-02T01:05:34.369Z,76.85
2023-02-02T01:08:07.305Z,76.38
2023-02-02T01:10:36.270Z,76.99
2023-02-02T01:13:05.326Z,76.42
2023-02-02T01:15:38.175Z,76.64
2023-02-02T01:18:06.676Z,76.46
2023-02-02T01:20:36.775Z,76.55
2023-02-02T01:23:06.570Z,76.46
2023-02-02T01:25:38.634Z,76.86
2023-02-02T01:28:06.942Z,76.71
2023-02-02T01:30:35.835Z,76.82
2023-02-02T01:33:06.362Z,77.44
2023-02-02T01:35:34.434Z,77.55
2023-02-02T01:38:02.968Z,77.65
2023-02-02T01:40:35.761Z,77.90
2023-02-02T01:43:04.461Z,79.63
2023-02-02T01:45:33.905Z,80.21
2023-02-02T01:48:02.086Z,80.65
2023-02-02T01:50:34.628Z,81.25
2023-02-02T01:53:05.071Z,81.54
2023-02-02T01:55:55.597Z,82.08
2023-02-02T01:58:27.244Z,81.39
2023-02-02T02:00:57.496Z,81.38
2023-02-02T02:03:28.837Z,80.64
2023-02-02T02:06:19.117Z,81.27
2023-02-02T02:08:53.396Z,80.27
2023-02-02T02:11:40.202Z,80.26
2023-02-02T02:14:44.561Z,80.34
2023-02-02T02:17:26.673Z,80.52
2023-02-02T02:20:47.903Z,80.11
2023-02-02T02:24:21.665Z,80.39
2023-02-02T02:27:05.280Z,79.81
2023-02-02T02:29:53.696Z,79.79
2023-02-02T02:32:36.892Z,79.72
2023-02-02T02:35:28.416Z,79.41
2023-02-02T02:38:02.883Z,79.89
2023-02-02T02:40:36.882Z,80.45
2023-02-02T02:43:11.760Z,80.00
2023-02-02T02:45:45.227Z,80.37
2023-02-02T02:48:22.687Z,80.58
2023-02-02T02:50:51.704Z,80.80
2023-02-02T02:53:22.513Z,81.60
2023-02-02T02:56:02.180Z,81.73
2023-02-02T02:58:39.231Z,83.14
2023-02-02T03:01:16.085Z,82.96
2023-02-02T03:03:57.943Z,82.11
2023-02-02T03:06:35.213Z,82.84
2023-02-02T03:09:10.991Z,83.90
2023-02-02T03:11:40.728Z,83.73
2023-02-02T03:14:10.155Z,84.05
2023-02-02T03:16:39.562Z,83.22
2023-02-02T03:19:13.143Z,83.02
2023-02-02T03:21:41.453Z,82.85
2023-02-02T03:24:10.304Z,82.83
2023-02-02T03:26:43.292Z,82.67
2023-02-02T03:29:11.562Z,82.59
2023-02-02T03:31:40.894Z,83.20
2023-02-02T03:34:10.582Z,83.33
2023-02-02T03:36:41.656Z,83.73
2023-02-02T03:39:10.100Z,83.86
2023-02-02T03:41:40.751Z,84.14
2023-02-02T03:44:12.041Z,84.34
2023-02-02T03:46:42.220Z,84.62
2023-02-02T03:49:11.905Z,84.40
2023-02-02T03:51:41.409Z,84.43
2023-02-02T03:54:11.077Z,84.84
2023-02-02T03:56:39.700Z,85.19
2023-02-02T03:59:07.903Z,84.42
2023-02-02T04:01:36.350Z,84.60
2023-02-02T04:04:05.762Z,84.93
2023-02-02T04:06:35.882Z,84.75
2023-02-02T04:09:03.731Z,85.13
2023-02-02T04:11:34.533Z,84.75
2023-02-02T04:14:03.239Z,84.16
2023-02-02T04:16:35.228Z,83.68
2023-02-02T04:19:03.119Z,83.62
2023-02-02T04:21:31.577Z,83.05
2023-02-02T04:24:02.997Z,82.47
2023-02-02T04:26:32.032Z,82.14
2023-02-02T04:29:00.479Z,81.98
2023-02-02T04:31:29.910Z,82.07
2023-02-02T04:34:00.267Z,81.48
2023-02-02T04:36:28.280Z,81.96
2023-02-02T04:38:57.273Z,81.75
2023-02-02T04:41:27.491Z,81.25
2023-02-02T04:43:55.242Z,80.91
2023-02-02T04:46:23.289Z,81.01
2023-02-02T04:48:51.836Z,80.99
2023-02-02T04:51:21.404Z,80.80
2023-02-02T04:53:49.948Z,80.83
2023-02-02T04:56:21.618Z,80.39
2023-02-02T04:58:56.175Z,80.23
2023-02-02T05:01:27.694Z,80.10
2023-02-02T05:04:02.269Z,79.62
2023-02-02T05:06:30.198Z,79.70
2023-02-02T05:08:59.327Z,80.09
2023-02-02T05:11:28.657Z,79.50
2023-02-02T05:13:58.077Z,79.65
2023-02-02T05:16:28.813Z,79.91
2023-02-02T05:18:59.769Z,80.21
2023-02-02T05:21:28.413Z,80.35
2023-02-02T05:23:56.267Z,80.04
2023-02-02T05:26:26.347Z,80.12
2023-02-02T05:28:54.990Z,80.46
2023-02-02T05:31:24.750Z,80.06
2023-02-02T05:33:52.562Z,80.32
2023-02-02T05:36:20.381Z,80.97
2023-02-02T05:38:51.936Z,81.24
2023-02-02T05:41:19.734Z,81.10
2023-02-02T05:43:50.392Z,80.90
2023-02-02T05:46:19.273Z,81.14
2023-02-02T05:48:49.473Z,80.79
2023-02-02T05:51:23.309Z,80.07
2023-02-02T05:53:59.981Z,80.60
2023-02-02T05:56:28.964Z,80.25
2023-02-02T05:58:57.021Z,80.40
2023-02-02T06:01:25.020Z,80.31
2023-02-02T06:03:57.680Z,79.67
2023-02-02T06:06:26.341Z,80.34
2023-02-02T06:08:56.025Z,79.88
2023-02-02T06:11:25.962Z,81.71
2023-02-02T06:13:53.938Z,81.63
2023-02-02T06:16:23.555Z,81.54
2023-02-02T06:18:52.592Z,81.49
2023-02-02T06:21:23.317Z,81.36
2023-02-02T06:23:53.566Z,81.94
2023-02-02T06:26:23.027Z,82.59
2023-02-02T06:28:53.593Z,82.46
2023-02-02T06:31:22.413Z,82.92
2023-02-02T06:33:57.633Z,82.69
2023-02-02T06:36:29.771Z,82.63
2023-02-02T06:38:58.956Z,81.79
2023-02-02T06:41:27.397Z,81.91
2023-02-02T06:43:55.821Z,81.21
2023-02-02T06:46:25.750Z,81.33
2023-02-02T06:48:54.493Z,81.49
2023-02-02T06:51:23.762Z,81.15
2023-02-02T06:53:54.179Z,80.76
2023-02-02T06:56:23.097Z,80.80
2023-02-02T06:58:53.523Z,80.84
2023-02-02T07:01:23.277Z,81.03
2023-02-02T07:03:54.274Z,80.79
2023-02-02T07:06:27.268Z,80.74
2023-02-02T07:09:02.666Z,81.10
2023-02-02T07:11:33.317Z,80.29
2023-02-02T07:14:06.190Z,79.76
2023-02-02T07:16:34.164Z,79.59
2023-02-02T07:19:05.095Z,79.05
2023-02-02T07:21:37.117Z,78.98
2023-02-02T07:24:08.138Z,77.92
2023-02-02T07:26:37.265Z,77.64
2023-02-02T07:29:09.247Z,77.28
2023-02-02T07:31:37.422Z,77.11
2023-02-02T07:34:08.770Z,77.23
2023-02-02T07:36:39.514Z,76.77
2023-02-02T07:39:11.101Z,77.16
2023-02-02T07:41:40.333Z,76.63
2023-02-02T07:44:11.561Z,76.97
2023-02-02T07:46:40.791Z,76.98
2023-02-02T07:49:09.283Z,77.55
2023-02-02T07:51:40.914Z,80.09
2023-02-02T07:54:14.288Z,79.57
2023-02-02T07:56:42.597Z,80.10
2023-02-02T07:59:13.668Z,78.92
2023-02-02T08:01:45.544Z,79.12
2023-02-02T08:04:15.883Z,78.85
2023-02-02T08:06:45.020Z,78.82
2023-02-02T08:09:14.918Z,79.37
2023-02-02T08:11:45.296Z,78.76
2023-02-02T08:14:15.780Z,78.15
2023-02-02T08:16:45.865Z,78.29
2023-02-02T08:19:15.236Z,77.64
2023-02-02T08:21:43.650Z,76.70
2023-02-02T08:24:13.164Z,76.92
2023-02-02T08:26:43.529Z,77.22
2023-02-02T08:29:17.223Z,76.48
2023-02-02T08:31:49.143Z,76.89
2023-02-02T08:34:17.105Z,76.63
2023-02-02T08:36:50.430Z,75.94
2023-02-02T08:39:18.522Z,75.77
2023-02-02T08:41:48.778Z,75.32
2023-02-02T08:44:20.032Z,75.66
2023-02-02T08:46:53.341Z,75.65
2023-02-02T08:49:21.712Z,74.75
2023-02-02T08:51:50.839Z,75.61
2023-02-02T08:54:21.533Z,75.46
2023-02-02T08:56:50.809Z,75.25
2023-02-02T08:59:20.340Z,74.70
2023-02-02T09:01:48.247Z,74.39
2023-02-02T09:04:17.160Z,74.25
2023-02-02T09:06:45.994Z,73.75
2023-02-02T09:09:17.706Z,73.76
2023-02-02T09:11:45.691Z,73.56
2023-02-02T09:14:16.691Z,73.47
2023-02-02T09:16:46.681Z,73.89
2023-02-02T09:19:20.123Z,74.08
2023-02-02T09:21:50.599Z,74.12
2023-02-02T09:24:23.052Z,74.32
2023-02-02T09:26:51.289Z,74.05
2023-02-02T09:29:22.636Z,74.14
2023-02-02T09:31:50.733Z,74.47
2023-02-02T09:34:22.602Z,74.39
2023-02-02T09:36:50.923Z,73.56
2023-02-02T09:39:19.567Z,73.91
2023-02-02T09:42:23.191Z,74.12
2023-02-02T09:45:00.960Z,73.67
2023-02-02T09:47:47.668Z,74.71
2023-02-02T09:50:22.228Z,75.98
2023-02-02T09:52:58.168Z,75.45
2023-02-02T09:55:31.889Z,75.19
2023-02-02T09:58:08.837Z,74.71
2023-02-02T10:00:42.703Z,75.62
2023-02-02T10:03:17.890Z,76.21
2023-02-02T10:05:50.622Z,77.61
2023-02-02T10:08:34.728Z,76.75
2023-02-02T10:11:15.562Z,77.43
2023-02-02T10:13:49.125Z,78.05
2023-02-02T10:16:21.962Z,78.56
2023-02-02T10:18:57.798Z,78.37
2023-02-02T10:21:36.009Z,77.80
2023-02-02T10:24:08.501Z,78.35
2023-02-02T10:26:41.198Z,78.83
2023-02-02T10:29:20.192Z,79.21
2023-02-02T10:32:05.558Z,79.33
2023-02-02T10:34:39.080Z,77.92
2023-02-02T10:37:18.964Z,78.95
2023-02-02T10:40:00.692Z,77.41
2023-02-02T10:42:36.617Z,76.42
2023-02-02T10:45:12.325Z,77.13
2023-02-02T10:47:41.866Z,77.29
2023-02-02T10:50:30.633Z,79.08
2023-02-02T10:53:04.407Z,76.38
2023-02-02T10:55:41.379Z,76.67
2023-02-02T10:58:20.481Z,77.87
2023-02-02T11:00:53.697Z,77.98
2023-02-02T11:03:26.615Z,76.53
2023-02-02T11:06:12.622Z,76.71
2023-02-02T11:08:44.363Z,76.99
2023-02-02T11:11:17.850Z,75.86
2023-02-02T11:13:51.779Z,76.66
2023-02-02T11:16:32.677Z,74.95
2023-02-02T11:19:23.844Z,76.42
2023-02-02T11:21:54.211Z,74.51
2023-02-02T11:24:26.233Z,75.95
2023-02-02T11:26:56.805Z,76.82
2023-02-02T11:29:31.295Z,76.40
2023-02-02T11:32:02.569Z,77.36
2023-02-02T11:34:32.190Z,79.47
2023-02-02T11:37:14.647Z,78.43
2023-02-02T11:39:44.090Z,79.26
2023-02-02T11:42:17.964Z,79.05
2023-02-02T11:44:49.825Z,79.65
2023-02-02T11:47:28.061Z,81.54
2023-02-02T11:50:07.777Z,79.86
2023-02-02T11:52:36.199Z,80.13
2023-02-02T11:55:15.812Z,80.28
2023-02-02T11:58:13.723Z,80.99
2023-02-02T12:00:50.659Z,80.51
2023-02-02T12:03:26.093Z,80.26
2023-02-02T12:05:56.212Z,80.98
2023-02-02T12:08:26.301Z,80.38
2023-02-02T12:11:03.553Z,80.81
2023-02-02T12:13:55.451Z,77.85
2023-02-02T12:16:37.938Z,77.69
2023-02-02T12:19:32.495Z,78.63
2023-02-02T12:22:14.197Z,77.30
2023-02-02T12:24:54.539Z,76.75
2023-02-02T12:27:34.063Z,77.24
2023-02-02T12:30:19.714Z,78.51
2023-02-02T12:33:06.322Z,78.30
2023-02-02T12:35:50.364Z,76.93
2023-02-02T12:38:34.017Z,76.00
2023-02-02T12:41:24.548Z,77.27
2023-02-02T12:44:02.826Z,78.37
2023-02-02T12:46:43.607Z,77.76
2023-02-02T12:49:34.368Z,78.69
2023-02-02T12:52:22.701Z,79.63
2023-02-02T12:55:16.719Z,77.46
2023-02-02T12:57:55.727Z,77.85
2023-02-02T13:00:51.350Z,79.43
2023-02-02T13:03:37.818Z,79.17
2023-02-02T13:06:42.744Z,77.91
2023-02-02T13:09:20.411Z,77.04
2023-02-02T13:11:56.184Z,77.57
2023-02-02T13:14:27.552Z,78.61
2023-02-02T13:17:01.885Z,77.85
2023-02-02T13:19:40.713Z,77.23
2023-02-02T13:22:20.154Z,78.00
2023-02-02T13:24:52.079Z,77.39
2023-02-02T13:27:24.974Z,78.37
2023-02-02T13:29:58.673Z,77.02
2023-02-02T13:32:34.204Z,76.06
2023-02-02T13:35:07.428Z,77.71
2023-02-02T13:37:43.002Z,78.95
2023-02-02T13:40:27.994Z,77.11
2023-02-02T13:43:07.773Z,77.37
2023-02-02T13:45:49.790Z,76.15
2023-02-02T13:48:33.080Z,77.04
2023-02-02T13:51:36.773Z,75.12
2023-02-02T13:54:41.016Z,75.76
2023-02-02T13:57:20.775Z,75.42
2023-02-02T14:00:04.798Z,75.17
2023-02-02T14:02:39.940Z,74.99
2023-02-02T14:05:26.421Z,73.88
2023-02-02T14:08:03.198Z,74.71
2023-02-02T14:10:35.265Z,75.24
2023-02-02T14:13:37.668Z,74.25
2023-02-02T14:16:23.726Z,74.23
2023-02-02T14:18:59.684Z,73.56
2023-02-02T14:22:02.776Z,73.10
2023-02-02T14:24:52.272Z,72.92
2023-02-02T14:28:02.272Z,72.49
2023-02-02T14:30:47.484Z,72.79
2023-02-02T14:33:47.511Z,72.65
2023-02-02T14:36:21.254Z,71.87
2023-02-02T14:38:59.733Z,71.36
2023-02-02T14:42:00.821Z,71.34
2023-02-02T14:44:30.775Z,71.15
2023-02-02T14:47:03.167Z,70.82
2023-02-02T14:49:41.509Z,71.19
2023-02-02T14:52:35.840Z,70.97
2023-02-02T14:55:27.168Z,72.15
2023-02-02T14:58:00.199Z,71.64
2023-02-02T15:00:37.852Z,73.11
2023-02-02T15:03:43.488Z,73.97
2023-02-02T15:06:27.843Z,75.13
2023-02-02T15:09:43.252Z,76.29
2023-02-02T15:12:21.360Z,76.17
2023-02-02T15:15:04.633Z,77.28
2023-02-02T15:17:48.392Z,76.97
2023-02-02T15:20:26.908Z,77.00
2023-02-02T15:23:00.777Z,76.72
2023-02-02T15:25:51.709Z,75.75
2023-02-02T15:28:42.466Z,75.97
2023-02-02T15:31:21.745Z,75.09
2023-02-02T15:34:06.251Z,74.79
2023-02-02T15:36:51.465Z,74.99
2023-02-02T15:39:42.371Z,74.89
2023-02-02T15:45:43.932Z,75.15
2023-02-02T15:48:26.963Z,73.86
2023-02-02T15:51:03.204Z,74.14
2023-02-02T15:53:38.877Z,73.88
2023-02-02T15:56:34.323Z,73.04
2023-02-02T15:59:08.166Z,73.01
2023-02-02T16:01:52.094Z,72.68
2023-02-02T16:04:34.828Z,72.59
2023-02-02T16:07:31.375Z,72.14
2023-02-02T16:10:12.465Z,72.05
2023-02-02T16:12:52.991Z,72.19
2023-02-02T16:15:30.795Z,72.39
2023-02-02T16:18:02.806Z,72.40
2023-02-02T16:20:36.770Z,72.14
2023-02-02T16:23:07.508Z,72.23
2023-02-02T16:25:52.201Z,72.85
2023-02-02T16:28:23.767Z,72.35
2023-02-02T16:30:53.706Z,72.48
2023-02-02T16:33:37.542Z,72.54
2023-02-02T16:36:25.009Z,71.59
2023-02-02T16:38:55.215Z,71.82
2023-02-02T16:41:33.948Z,71.17
2023-02-02T16:44:38.953Z,71.18
2023-02-02T16:47:30.895Z,71.46
2023-02-02T16:50:24.113Z,71.89
2023-02-02T16:52:57.415Z,71.75
2023-02-02T16:55:47.985Z,71.81
2023-02-02T16:58:22.091Z,71.90
2023-02-02T17:01:13.616Z,72.62
2023-02-02T17:03:52.676Z,72.30
2023-02-02T17:06:38.635Z,72.15
2023-02-02T17:09:36.445Z,71.58
2023-02-02T17:12:33.590Z,71.94
2023-02-02T17:15:25.450Z,71.63
2023-02-02T17:17:57.282Z,71.71
2023-02-02T17:20:26.893Z,71.35
2023-02-02T17:22:59.063Z,71.38
2023-02-02T17:25:33.535Z,70.89
2023-02-02T17:28:02.399Z,70.66
2023-02-02T17:30:32.535Z,70.12
2023-02-02T17:33:01.938Z,69.85
2023-02-02T17:35:43.382Z,70.10
2023-02-02T17:38:17.398Z,70.30
2023-02-02T17:40:45.840Z,69.90
2023-02-02T17:43:14.031Z,69.51
2023-02-02T17:45:42.185Z,69.43
2023-02-02T17:48:15.100Z,69.99
2023-02-02T17:50:44.915Z,69.52
2023-02-02T17:53:17.953Z,69.62
2023-02-02T17:55:51.279Z,70.42
2023-02-02T17:58:20.980Z,70.57
2023-02-02T18:00:55.141Z,70.83
2023-02-02T18:03:34.380Z,70.37
2023-02-02T18:06:06.407Z,70.67
2023-02-02T18:08:35.160Z,70.67
2023-02-02T18:11:13.472Z,70.70
2023-02-02T18:13:43.868Z,70.62
2023-02-02T18:16:15.328Z,70.74
2023-02-02T18:18:44.579Z,70.58
2023-02-02T18:21:18.905Z,70.32
2023-02-02T18:23:52.897Z,70.74
2023-02-02T18:26:23.410Z,70.58
2023-02-02T18:28:59.262Z,70.57
2023-02-02T18:31:28.028Z,69.98
2023-02-02T18:34:04.542Z,70.21
2023-02-02T18:36:34.017Z,70.35
2023-02-02T18:39:03.507Z,70.60
2023-02-02T18:41:31.623Z,70.70
2023-02-02T18:43:59.976Z,70.14
2023-02-02T18:46:29.582Z,70.17
2023-02-02T18:48:57.824Z,70.49
2023-02-02T18:51:31.905Z,70.75
2023-02-02T18:54:03.932Z,70.11
2023-02-02T18:56:33.156Z,70.67
2023-02-02T18:59:02.175Z,69.99
2023-02-02T19:01:30.480Z,70.59
2023-02-02T19:04:16.633Z,69.70
2023-02-02T19:07:05.140Z,70.22
2023-02-02T19:09:33.312Z,70.42
2023-02-02T19:12:07.268Z,70.02
2023-02-02T19:14:38.484Z,70.32
2023-02-02T19:17:18.677Z,69.58
2023-02-02T19:19:54.891Z,70.14
2023-02-02T19:22:32.272Z,69.91
2023-02-02T19:25:00.822Z,70.24
2023-02-02T19:27:29.263Z,69.69
2023-02-02T19:30:03.962Z,69.85
2023-02-02T19:32:38.416Z,70.09
2023-02-02T19:35:16.619Z,70.33
2023-02-02T19:37:53.917Z,70.72
2023-02-02T19:40:25.100Z,69.61
2023-02-02T19:43:09.012Z,70.40
2023-02-02T19:45:39.717Z,69.88
2023-02-02T19:48:16.967Z,69.98
2023-02-02T19:50:48.813Z,69.87
2023-02-02T19:53:28.267Z,70.31
2023-02-02T19:55:57.787Z,70.16
2023-02-02T19:58:30.500Z,70.60
2023-02-02T20:01:00.527Z,71.45
2023-02-02T20:03:37.817Z,70.81
2023-02-02T20:06:07.193Z,71.51
2023-02-02T20:08:40.608Z,71.40
2023-02-02T20:11:25.361Z,71.01
2023-02-02T20:13:54.622Z,71.04
2023-02-02T20:16:25.371Z,71.74
2023-02-02T20:18:58.458Z,71.43
2023-02-02T20:21:35.230Z,71.36
2023-02-02T20:24:05.397Z,71.52
2023-02-02T20:26:37.475Z,71.36
2023-02-02T20:29:18.396Z,71.55
2023-02-02T20:31:48.558Z,71.15
2023-02-02T20:34:34.601Z,71.15
2023-02-02T20:37:16.151Z,71.61
2023-02-02T20:39:59.599Z,71.73
2023-02-02T20:42:29.348Z,71.88
2023-02-02T20:45:00.348Z,71.51
2023-02-02T20:47:30.276Z,71.64
2023-02-02T20:50:01.386Z,72.14
2023-02-02T20:52:31.036Z,72.45
2023-02-02T20:55:02.628Z,72.56
2023-02-02T20:57:32.256Z,72.96
2023-02-02T21:00:00.562Z,72.95
2023-02-02T21:02:29.697Z,72.95
2023-02-02T21:05:02.371Z,73.57
2023-02-02T21:07:32.733Z,73.72
2023-02-02T21:10:04.695Z,73.67
2023-02-02T21:12:39.054Z,73.93
2023-02-02T21:15:07.868Z,74.21
2023-02-02T21:17:37.140Z,74.00
2023-02-02T21:20:16.117Z,74.20
2023-02-02T21:22:44.256Z,74.04
2023-02-02T21:25:15.468Z,74.09
2023-02-02T21:27:44.570Z,74.01
2023-02-02T21:30:14.423Z,73.64
2023-02-02T21:32:42.406Z,73.62
2023-02-02T21:35:14.077Z,74.19
2023-02-02T21:37:44.204Z,74.22
2023-02-02T21:40:16.914Z,74.70
2023-02-02T21:42:49.424Z,74.56
2023-02-02T21:45:36.119Z,74.81
2023-02-02T21:48:08.735Z,74.44
2023-02-02T21:50:41.886Z,74.92
2023-02-02T21:53:22.264Z,74.69
2023-02-02T21:55:59.676Z,74.35
2023-02-02T21:58:36.217Z,75.04
2023-02-02T22:01:19.140Z,74.93
2023-02-02T22:03:49.741Z,74.94
2023-02-02T22:06:36.931Z,75.19
2023-02-02T22:09:27.640Z,75.32
2023-02-02T22:12:00.603Z,74.70
2023-02-02T22:14:37.574Z,74.79
2023-02-02T22:17:22.185Z,75.03
2023-02-02T22:19:52.258Z,75.22
2023-02-02T22:22:23.133Z,75.36
2023-02-02T22:25:01.364Z,75.27
2023-02-02T22:27:44.276Z,74.94
2023-02-02T22:30:27.992Z,75.93
2023-02-02T22:32:57.641Z,75.46
2023-02-02T22:35:27.307Z,75.70
2023-02-02T22:37:55.314Z,75.89
2023-02-02T22:40:24.089Z,75.88
2023-02-02T22:42:55.847Z,76.10
2023-02-02T22:45:27.479Z,75.98
2023-02-02T22:47:56.400Z,76.36
2023-02-02T22:50:31.834Z,75.73
2023-02-02T22:53:01.465Z,75.91
2023-02-02T22:55:30.132Z,76.05
2023-02-02T22:58:01.666Z,76.11
2023-02-02T23:00:35.281Z,75.90
2023-02-02T23:03:06.186Z,76.43
2023-02-02T23:05:37.214Z,76.57
2023-02-02T23:08:06.544Z,76.64
2023-02-02T23:10:35.851Z,76.59
2023-02-02T23:13:07.399Z,76.83
2023-02-02T23:15:37.384Z,77.29
2023-02-02T23:18:07.307Z,76.43
2023-02-02T23:20:35.482Z,76.18
2023-02-02T23:23:04.420Z,76.59
2023-02-02T23:25:34.339Z,76.93
2023-02-02T23:28:03.019Z,77.15
2023-02-02T23:30:37.604Z,76.85
2023-02-02T23:33:07.845Z,76.95
2023-02-02T23:35:36.761Z,76.69
2023-02-02T23:38:05.816Z,76.67
2023-02-02T23:40:36.505Z,76.58
2023-02-02T23:43:08.521Z,76.72
2023-02-02T23:45:40.165Z,76.88
2023-02-02T23:48:13.355Z,76.77
2023-02-02T23:50:42.140Z,76.99
2023-02-02T23:53:13.964Z,76.43
2023-02-02T23:58:34.709Z,77.02
